Flight Track Log - Related Links

Times and Time Zones

All times are in EDT time to prevent confusion due to time zone crossing. See the WWW586 flight status page for this flight to view local times or setup timezone preferences in your user account.

Time Position Orientation Groundspeed Altitude Reporting Facility
EDT Latitude Longitude Course Direction KTS MPH feet Rate Location/Type
Wed 08:29:43 AM 36.1039 -115.1564 323° Northwest 133 153 3,300  Level Los Angeles Center
Wed 08:31:09 AM 36.1581 -115.2292 313° West 238 274 6,600 2,753 Climbing Los Angeles Center
Wed 08:32:09 AM 36.1889 -115.3053 297° West 250 288 10,000 2,529 Climbing Los Angeles Center
Wed 08:33:10 AM 36.2275 -115.3972 298° West 283 326 11,700 2,926 Climbing Los Angeles Center
Wed 08:34:10 AM 36.2711 -115.4992 298° West 327 376 15,900 3,150 Climbing Los Angeles Center
Wed 08:35:00 AM 36.5624 -115.5998 323° Northwest  Level Estimated
Wed 08:35:10 AM 36.3250 -115.5969 304° West 332 382 18,000  Level Los Angeles Center
Wed 08:36:11 AM 36.3794 -115.6919 305° West 368 423 20,000 992 Climbing Los Angeles Center
Wed 08:37:11 AM 36.4414 -115.8017 305° West 383 441 20,000  Level Los Angeles Center
Wed 08:38:11 AM 36.5128 -115.9289 305° West 388 447 20,000  Level Los Angeles Center
Wed 08:39:12 AM 36.5719 -116.0367 304° West 392 451 20,000  Level Los Angeles Center
Wed 08:40:12 AM 36.6092 -116.1647 290° West 392 451 20,000  Level Los Angeles Center
Wed 08:41:13 AM 36.6444 -116.2914 289° West 390 449 20,000  Level Los Angeles Center
Wed 08:42:13 AM 36.6803 -116.4189 289° West 388 447 20,000  Level Los Angeles Center
Wed 08:43:13 AM 36.7358 -116.5333 301° West 388 447 20,000  Level Los Angeles Center
Wed 08:44:14 AM 36.7961 -116.6461 304° West 389 448 20,000  Level Los Angeles Center
Wed 08:45:14 AM 36.8811 -116.7283 322° Northwest 388 447 20,000  Level Los Angeles Center
Wed 08:46:15 AM 36.9714 -116.8039 326° Northwest 391 450 20,000  Level Los Angeles Center
Wed 08:47:15 AM 37.0617 -116.8789 326° Northwest 389 448 20,000 -843 Level Los Angeles Center
Wed 08:48:16 AM 37.1500 -116.9525 326° Northwest 383 441 18,300 -1,835 Descending Los Angeles Center
Wed 08:49:16 AM 37.2347 -117.0186 328° Northwest 365 420 16,300 -1,150 Descending Los Angeles Center
Wed 08:50:16 AM 37.3186 -117.0856 328° Northwest 358 412 16,000 -99 Descending Los Angeles Center
Wed 08:51:17 AM 37.3981 -117.1614 323° Northwest 357 411 16,100 -446 Climbing Los Angeles Center
Wed 08:52:17 AM 37.4814 -117.1697 355° North 332 382 15,100 -1,835 Descending Los Angeles Center
Wed 08:53:18 AM 37.5211 -117.0678 64° Northeast 323 372 12,400 -1,983 Descending Los Angeles Center
Wed 08:54:18 AM 37.5558 -116.9683 66° East 317 365 11,100 -1,388 Descending Los Angeles Center
Wed 08:55:19 AM 37.5972 -116.8939 55° Northeast 274 315 9,600 -1,339 Descending Los Angeles Center
Wed 08:56:19 AM 37.6397 -116.8308 50° Northeast 247 284 8,400 -1,117 Descending Los Angeles Center
Wed 08:57:44 AM 37.6994 -116.7839 32° Northeast 198 228 6,900 -745 Descending Los Angeles Center
Wed 08:58:44 AM 37.7378 -116.7519 33° Northeast 164 189 6,600 -496 Descending Los Angeles Center
Wed 08:59:45 AM 37.7694 -116.7661 341° North 137 158 5,900 -689 Descending Los Angeles Center

Login

Don't have an account? Register now (free) for customized features, flight alerts, and more!